Time;durP1;ratioP1;P1;durP2;ratioP2;P2;SDS_P1;SDS_P2;PMS_P1;PMS_P2;Temp;Humidity;BMP_temperature;BMP_pressure;BME280_temperature;BME280_humidity;BME280_pressure;Samples;Min_cycle;Max_cycle;Signal;HPM_P1;HPM_P2
2023/01/16 00:01:20;;;;;;;;;;;19.40;54.40;;;;;;6319424;28;19955;-67
2023/01/16 00:04:21;;;;;;;;;;;19.30;55.00;;;;;;6319376;28;19904;-67
2023/01/16 00:07:22;;;;;;;;;;;19.30;54.20;;;;;;6319438;28;19911;-68
2023/01/16 00:10:23;;;;;;;;;;;19.30;54.30;;;;;;6319435;28;20345;-68
2023/01/16 00:13:23;;;;;;;;;;;19.40;54.40;;;;;;6319751;28;19944;-67
2023/01/16 00:16:24;;;;;;;;;;;19.30;54.30;;;;;;6319410;28;19904;-67
2023/01/16 00:19:24;;;;;;;;;;;19.40;54.40;;;;;;6301566;28;19915;-67
2023/01/16 00:22:25;;;;;;;;;;;19.30;54.20;;;;;;6301176;28;19904;-67
2023/01/16 00:25:25;;;;;;;;;;;19.40;54.40;;;;;;6319162;28;19956;-67
2023/01/16 00:28:26;;;;;;;;;;;19.40;54.40;;;;;;6301239;28;19930;-66
2023/01/16 00:31:26;;;;;;;;;;;19.40;54.30;;;;;;6319792;28;19965;-67
2023/01/16 00:34:27;;;;;;;;;;;19.40;54.40;;;;;;6319280;28;19911;-68
2023/01/16 00:37:27;;;;;;;;;;;19.40;54.40;;;;;;6301399;28;19939;-68
2023/01/16 00:40:28;;;;;;;;;;;19.30;54.30;;;;;;6319191;28;20418;-67
2023/01/16 00:43:29;;;;;;;;;;;19.30;54.10;;;;;;6319363;28;20049;-68
2023/01/16 00:46:29;;;;;;;;;;;19.30;54.30;;;;;;6319058;28;19953;-67
2023/01/16 00:49:30;;;;;;;;;;;19.30;54.40;;;;;;6319570;28;20305;-67
2023/01/16 00:52:30;;;;;;;;;;;19.40;54.40;;;;;;6319156;28;19912;-67
2023/01/16 00:55:36;;;;;;;;;;;19.30;54.30;;;;;;6319012;28;19915;-66
2023/01/16 00:58:37;;;;;;;;;;;19.40;54.40;;;;;;6318885;28;19995;-67
2023/01/16 01:01:38;;;;;;;;;;;19.40;54.40;;;;;;6319358;28;20463;-67
2023/01/16 01:04:38;;;;;;;;;;;19.40;54.40;;;;;;6319023;28;19904;-68
2023/01/16 01:07:39;;;;;;;;;;;19.30;54.40;;;;;;6300820;28;20066;-67
2023/01/16 01:10:39;;;;;;;;;;;19.40;54.50;;;;;;6319576;28;19911;-67
2023/01/16 01:13:40;;;;;;;;;;;19.30;54.40;;;;;;6320155;28;19908;-67
2023/01/16 01:16:41;;;;;;;;;;;19.30;54.20;;;;;;6323508;28;20010;-67
2023/01/16 01:19:41;;;;;;;;;;;19.40;54.40;;;;;;6323581;28;19908;-67
2023/01/16 01:22:43;;;;;;;;;;;19.30;54.40;;;;;;6306150;28;20363;-68
2023/01/16 01:25:44;;;;;;;;;;;19.40;54.30;;;;;;6323130;28;20276;-67
2023/01/16 01:28:44;;;;;;;;;;;19.40;54.30;;;;;;6323430;28;19943;-68
2023/01/16 01:31:45;;;;;;;;;;;19.40;54.40;;;;;;6323088;28;19915;-67
2023/01/16 01:34:46;;;;;;;;;;;19.30;54.40;;;;;;6322825;28;19995;-68
2023/01/16 01:37:46;;;;;;;;;;;19.30;54.10;;;;;;6322260;28;19904;-68
2023/01/16 01:40:47;;;;;;;;;;;19.40;54.30;;;;;;6322843;28;19904;-67
2023/01/16 01:43:51;;;;;;;;;;;19.40;54.30;;;;;;6304309;28;19994;-67
2023/01/16 01:46:51;;;;;;;;;;;19.30;54.10;;;;;;6322386;28;20000;-68
2023/01/16 01:49:54;;;;;;;;;;;19.40;54.20;;;;;;6304143;28;20373;-67
2023/01/16 01:52:58;;;;;;;;;;;19.30;54.10;;;;;;6304407;28;19927;-67
2023/01/16 01:56:00;;;;;;;;;;;19.30;54.20;;;;;;6321964;28;19915;-68
2023/01/16 01:59:04;;;;;;;;;;;19.30;54.20;;;;;;6322099;28;19908;-67
2023/01/16 02:02:05;;;;;;;;;;;19.40;54.40;;;;;;6303871;28;19904;-67
2023/01/16 02:05:08;;;;;;;;;;;19.30;54.40;;;;;;6322069;28;20249;-67
2023/01/16 02:08:08;;;;;;;;;;;19.30;54.40;;;;;;6321921;28;19911;-67
2023/01/16 02:11:25;;;;;;;;;;;19.30;54.40;;;;;;6321983;28;19904;-68
2023/01/16 02:14:27;;;;;;;;;;;19.30;54.40;;;;;;6322013;28;20010;-67
2023/01/16 02:20:57;;;;;;;;;;;19.40;54.50;;;;;;6321759;28;19904;-67
2023/01/16 02:24:16;;;;;;;;;;;19.30;54.40;;;;;;6321036;28;19904;-67
2023/01/16 02:27:35;;;;;;;;;;;19.30;54.40;;;;;;6321410;28;19924;-67
2023/01/16 02:30:47;;;;;;;;;;;19.40;54.30;;;;;;6321250;28;19953;-67
2023/01/16 02:34:06;;;;;;;;;;;19.30;54.30;;;;;;6320026;28;19908;-68
2023/01/16 02:37:13;;;;;;;;;;;19.40;55.10;;;;;;6321248;28;19904;-67
2023/01/16 02:40:27;;;;;;;;;;;19.30;54.30;;;;;;6320916;28;19957;-68
2023/01/16 02:43:36;;;;;;;;;;;19.30;54.50;;;;;;6321458;28;19904;-67
2023/01/16 02:46:45;;;;;;;;;;;19.40;54.50;;;;;;6320970;28;19904;-68
2023/01/16 02:49:52;;;;;;;;;;;19.30;54.40;;;;;;6302642;28;19904;-67
2023/01/16 02:52:56;;;;;;;;;;;19.30;54.50;;;;;;6302623;28;19908;-67
2023/01/16 02:56:02;;;;;;;;;;;19.30;54.50;;;;;;6320724;28;19957;-67
2023/01/16 02:59:03;;;;;;;;;;;19.40;54.50;;;;;;6320976;28;20621;-67
2023/01/16 03:02:04;;;;;;;;;;;19.40;54.50;;;;;;6320728;28;19904;-68
2023/01/16 03:05:04;;;;;;;;;;;19.40;54.50;;;;;;6320708;28;19904;-67
2023/01/16 03:08:08;;;;;;;;;;;19.40;54.50;;;;;;6320402;28;19904;-68
2023/01/16 03:11:22;;;;;;;;;;;19.30;54.40;;;;;;6320563;28;19954;-67
2023/01/16 03:14:25;;;;;;;;;;;19.30;54.40;;;;;;6320698;28;20284;-67
2023/01/16 03:17:43;;;;;;;;;;;19.30;54.40;;;;;;6302333;28;19904;-68
2023/01/16 03:20:56;;;;;;;;;;;19.30;54.50;;;;;;6320299;28;19904;-68
2023/01/16 03:24:00;;;;;;;;;;;19.30;54.50;;;;;;6320291;28;20323;-67
2023/01/16 03:27:03;;;;;;;;;;;19.30;54.50;;;;;;6320017;28;19916;-67
2023/01/16 03:30:26;;;;;;;;;;;19.40;54.50;;;;;;6320104;28;20241;-67
2023/01/16 03:33:45;;;;;;;;;;;19.40;54.30;;;;;;6319961;28;19931;-68
2023/01/16 03:36:48;;;;;;;;;;;19.30;54.40;;;;;;6301228;28;19908;-67
2023/01/16 03:39:52;;;;;;;;;;;19.30;54.30;;;;;;6301805;28;20005;-68
2023/01/16 03:43:06;;;;;;;;;;;19.40;54.50;;;;;;6319740;28;19905;-68
2023/01/16 03:46:18;;;;;;;;;;;19.40;54.50;;;;;;6301709;28;19930;-67
2023/01/16 03:49:25;;;;;;;;;;;19.30;54.40;;;;;;6319785;28;19904;-67
2023/01/16 03:52:30;;;;;;;;;;;19.40;54.50;;;;;;6301337;28;19908;-67
2023/01/16 03:55:35;;;;;;;;;;;19.40;54.50;;;;;;6319352;28;20531;-68
2023/01/16 03:58:37;;;;;;;;;;;19.30;54.40;;;;;;6319493;28;19996;-67
2023/01/16 04:01:47;;;;;;;;;;;19.30;54.40;;;;;;6319505;28;19907;-68
2023/01/16 04:04:48;;;;;;;;;;;19.30;54.40;;;;;;6319636;28;20540;-67
2023/01/16 04:07:57;;;;;;;;;;;19.40;54.50;;;;;;6319515;28;19919;-67
2023/01/16 04:10:58;;;;;;;;;;;19.40;54.50;;;;;;6319451;28;19990;-68
2023/01/16 04:14:01;;;;;;;;;;;19.40;54.50;;;;;;6319092;28;19904;-67
2023/01/16 04:17:03;;;;;;;;;;;19.30;54.40;;;;;;6319345;28;19904;-67
2023/01/16 04:20:05;;;;;;;;;;;19.30;54.40;;;;;;6319379;28;19904;-68
2023/01/16 04:23:05;;;;;;;;;;;19.40;54.50;;;;;;6319452;28;19904;-67
2023/01/16 04:26:06;;;;;;;;;;;19.30;54.40;;;;;;6319098;28;19916;-68
2023/01/16 04:29:07;;;;;;;;;;;19.30;54.40;;;;;;6319250;28;19943;-67
2023/01/16 04:32:07;;;;;;;;;;;19.30;54.30;;;;;;6319074;28;20336;-68
2023/01/16 04:35:08;;;;;;;;;;;19.40;54.40;;;;;;6319176;28;19911;-68
2023/01/16 04:38:09;;;;;;;;;;;19.40;54.50;;;;;;6319231;28;19904;-68
2023/01/16 04:41:09;;;;;;;;;;;19.40;54.40;;;;;;6319225;28;19957;-67
2023/01/16 04:44:12;;;;;;;;;;;19.40;54.40;;;;;;6319043;28;19911;-67
2023/01/16 04:47:13;;;;;;;;;;;19.30;54.40;;;;;;6319606;28;20465;-67
2023/01/16 04:50:14;;;;;;;;;;;19.30;54.30;;;;;;6323901;28;19939;-68
2023/01/16 04:53:14;;;;;;;;;;;19.30;54.40;;;;;;6323705;28;19908;-67
2023/01/16 04:56:15;;;;;;;;;;;19.30;54.40;;;;;;6323544;28;19904;-67
2023/01/16 05:02:53;;;;;;;;;;;19.40;54.50;;;;;;6323749;28;20353;-68
2023/01/16 05:05:54;;;;;;;;;;;19.30;54.40;;;;;;6323377;28;19919;-68
2023/01/16 05:08:54;;;;;;;;;;;19.40;54.50;;;;;;6323537;28;19904;-68
2023/01/16 05:11:55;;;;;;;;;;;19.30;54.40;;;;;;6305032;28;19908;-67
2023/01/16 05:14:55;;;;;;;;;;;19.40;54.40;;;;;;6323132;28;19904;-68
2023/01/16 05:17:57;;;;;;;;;;;19.30;54.40;;;;;;6323360;28;19951;-67
2023/01/16 05:20:57;;;;;;;;;;;19.40;54.40;;;;;;6323136;28;19958;-68
2023/01/16 05:23:58;;;;;;;;;;;19.30;54.40;;;;;;6322938;28;20350;-68
2023/01/16 05:26:58;;;;;;;;;;;19.40;54.40;;;;;;6322821;28;19920;-67
2023/01/16 05:30:00;;;;;;;;;;;19.30;54.30;;;;;;6323008;28;19904;-67
2023/01/16 05:33:02;;;;;;;;;;;19.40;54.30;;;;;;6322645;28;20504;-67
2023/01/16 05:36:02;;;;;;;;;;;19.40;54.40;;;;;;6322815;28;19904;-67
2023/01/16 05:39:03;;;;;;;;;;;19.40;54.40;;;;;;6304625;28;19961;-68
2023/01/16 05:42:04;;;;;;;;;;;19.30;54.40;;;;;;6322634;28;19911;-68
2023/01/16 05:45:05;;;;;;;;;;;19.40;54.40;;;;;;6322488;28;19950;-66
2023/01/16 05:48:05;;;;;;;;;;;19.30;54.40;;;;;;6322326;28;19904;-67
2023/01/16 05:51:06;;;;;;;;;;;19.30;54.30;;;;;;6322646;28;19904;-69
2023/01/16 05:54:09;;;;;;;;;;;19.30;54.30;;;;;;6322586;28;19949;-68
2023/01/16 05:57:10;;;;;;;;;;;19.30;54.30;;;;;;6322199;28;19904;-67
2023/01/16 06:00:11;;;;;;;;;;;19.40;54.40;;;;;;6321917;28;19904;-67
2023/01/16 06:03:12;;;;;;;;;;;19.30;54.40;;;;;;6322137;28;19958;-68
2023/01/16 06:06:12;;;;;;;;;;;19.40;54.40;;;;;;6322146;28;19949;-68
2023/01/16 06:09:13;;;;;;;;;;;19.40;54.30;;;;;;6322077;28;19927;-68
2023/01/16 06:12:14;;;;;;;;;;;19.40;54.30;;;;;;6304091;28;19908;-67
2023/01/16 06:15:15;;;;;;;;;;;19.40;54.30;;;;;;6321617;28;19945;-67
2023/01/16 06:18:16;;;;;;;;;;;19.30;54.30;;;;;;6322083;28;20341;-67
2023/01/16 06:21:16;;;;;;;;;;;19.30;54.30;;;;;;6321614;28;19904;-68
2023/01/16 06:24:17;;;;;;;;;;;19.30;54.30;;;;;;6321786;28;19949;-67
2023/01/16 06:27:17;;;;;;;;;;;19.30;54.30;;;;;;6321396;28;20361;-68
2023/01/16 06:30:18;;;;;;;;;;;19.30;54.30;;;;;;6321400;28;20022;-68
2023/01/16 06:33:19;;;;;;;;;;;19.40;54.30;;;;;;6321249;28;20023;-68
2023/01/16 06:36:19;;;;;;;;;;;19.30;54.20;;;;;;6321445;28;20318;-67
2023/01/16 06:39:20;;;;;;;;;;;19.40;54.30;;;;;;6320821;28;20494;-68
2023/01/16 06:42:21;;;;;;;;;;;19.30;54.30;;;;;;6303399;28;20280;-68
2023/01/16 06:45:22;;;;;;;;;;;19.30;54.30;;;;;;6320891;28;19914;-68
2023/01/16 06:48:22;;;;;;;;;;;19.30;54.30;;;;;;6321024;28;19908;-68
2023/01/16 06:51:23;;;;;;;;;;;19.30;54.30;;;;;;6320988;28;19919;-68
2023/01/16 06:54:23;;;;;;;;;;;19.40;54.30;;;;;;6319809;28;19904;-67
2023/01/16 06:57:24;;;;;;;;;;;19.30;54.30;;;;;;6320723;28;19940;-68
2023/01/16 07:00:25;;;;;;;;;;;19.40;54.30;;;;;;6322206;28;19904;-68
2023/01/16 07:03:26;;;;;;;;;;;19.30;54.30;;;;;;6322908;28;19998;-67
2023/01/16 07:06:26;;;;;;;;;;;19.30;54.30;;;;;;6322935;28;19904;-68
2023/01/16 07:09:30;;;;;;;;;;;19.30;54.30;;;;;;6322693;28;19911;-68
2023/01/16 07:12:30;;;;;;;;;;;19.30;54.30;;;;;;6303680;28;19969;-67
2023/01/16 07:25:34;;;;;;;;;;;19.30;54.20;;;;;;6322370;28;19995;-67
2023/01/16 07:28:35;;;;;;;;;;;19.40;54.30;;;;;;6304244;28;19911;-68
2023/01/16 07:31:35;;;;;;;;;;;19.40;54.30;;;;;;6322259;28;19908;-68
2023/01/16 07:34:37;;;;;;;;;;;19.30;54.30;;;;;;6322112;28;19911;-68
2023/01/16 07:37:38;;;;;;;;;;;19.30;54.30;;;;;;6304219;28;20003;-68
2023/01/16 07:40:39;;;;;;;;;;;19.40;54.30;;;;;;6321962;28;19908;-68
2023/01/16 07:43:40;;;;;;;;;;;19.40;54.30;;;;;;6322147;28;19948;-69
2023/01/16 07:46:40;;;;;;;;;;;19.30;54.20;;;;;;6309279;28;19957;-68
2023/01/16 07:49:41;;;;;;;;;;;19.30;54.20;;;;;;6320308;28;19915;-68
2023/01/16 07:52:42;;;;;;;;;;;19.30;54.10;;;;;;6321760;28;20010;-68
2023/01/16 07:55:42;;;;;;;;;;;19.30;54.20;;;;;;6321612;28;19904;-68
2023/01/16 07:58:43;;;;;;;;;;;19.30;54.20;;;;;;6321484;28;19942;-68
2023/01/16 08:01:45;;;;;;;;;;;19.40;54.30;;;;;;6321107;28;19904;-69
2023/01/16 08:04:46;;;;;;;;;;;19.40;54.30;;;;;;6319999;28;19904;-69
2023/01/16 08:07:47;;;;;;;;;;;19.40;54.30;;;;;;6321097;28;19911;-69
2023/01/16 08:10:47;;;;;;;;;;;19.40;54.30;;;;;;6321360;28;19904;-69
2023/01/16 08:13:48;;;;;;;;;;;19.40;54.30;;;;;;6321311;28;20005;-69
2023/01/16 08:16:48;;;;;;;;;;;19.40;54.30;;;;;;6321178;28;19991;-69
2023/01/16 08:19:49;;;;;;;;;;;19.40;54.30;;;;;;6319945;28;20323;-69
2023/01/16 08:22:50;;;;;;;;;;;19.40;54.30;;;;;;6322900;28;19904;-69
2023/01/16 08:25:52;;;;;;;;;;;19.30;54.20;;;;;;6324440;28;20004;-69
2023/01/16 08:28:53;;;;;;;;;;;19.30;54.10;;;;;;6337199;28;19998;-69
2023/01/16 08:31:54;;;;;;;;;;;19.30;54.20;;;;;;6333306;28;20018;-69
2023/01/16 08:34:54;;;;;;;;;;;19.30;54.10;;;;;;6327718;28;19904;-69
2023/01/16 08:37:55;;;;;;;;;;;19.30;54.20;;;;;;6326000;28;19904;-68
2023/01/16 08:40:55;;;;;;;;;;;19.30;54.10;;;;;;6307560;28;19911;-69
2023/01/16 08:54:00;;;;;;;;;;;19.40;54.20;;;;;;6342967;28;19954;-69
2023/01/16 08:57:01;;;;;;;;;;;19.40;54.20;;;;;;6349382;28;19928;-69
2023/01/16 09:00:04;;;;;;;;;;;19.40;54.30;;;;;;6324897;28;19912;-69
2023/01/16 09:03:05;;;;;;;;;;;19.40;54.20;;;;;;6311592;28;19996;-69
2023/01/16 09:06:05;;;;;;;;;;;19.40;54.40;;;;;;6299991;28;19904;-69
2023/01/16 09:09:06;;;;;;;;;;;19.40;54.30;;;;;;6334057;28;19986;-69
2023/01/16 09:15:30;;;;;;;;;;;19.30;54.30;;;;;;6299842;28;19994;-69
2023/01/16 09:18:30;;;;;;;;;;;19.30;54.10;;;;;;6302656;28;19910;-69
2023/01/16 09:21:31;;;;;;;;;;;19.40;54.20;;;;;;6331966;28;19910;-69
2023/01/16 09:24:32;;;;;;;;;;;19.40;54.30;;;;;;6313344;28;19915;-68
2023/01/16 09:27:33;;;;;;;;;;;19.40;54.30;;;;;;6325409;28;20288;-69
2023/01/16 09:30:33;;;;;;;;;;;19.40;54.30;;;;;;6350029;28;19903;-69
2023/01/16 09:33:34;;;;;;;;;;;19.40;54.30;;;;;;6346256;28;20010;-69
2023/01/16 09:36:35;;;;;;;;;;;19.30;54.20;;;;;;6331049;28;19998;-69
2023/01/16 09:39:36;;;;;;;;;;;19.40;54.30;;;;;;6325635;28;19911;-69
2023/01/16 09:46:19;;;;;;;;;;;19.40;54.10;;;;;;6293443;28;19905;-69
2023/01/16 09:49:34;;;;;;;;;;;19.30;54.10;;;;;;6312147;28;19904;-69
2023/01/16 09:59:27;;;;;;;;;;;19.40;54.20;;;;;;6327162;28;19904;-69
2023/01/16 10:02:32;;;;;;;;;;;19.40;54.10;;;;;;6335432;28;20273;-69
2023/01/16 10:05:37;;;;;;;;;;;19.40;54.20;;;;;;6323666;28;20357;-69
2023/01/16 10:08:57;;;;;;;;;;;19.40;54.10;;;;;;6315920;28;20275;-69
2023/01/16 10:12:01;;;;;;;;;;;19.40;54.10;;;;;;6302273;28;20388;-69
2023/01/16 10:15:04;;;;;;;;;;;19.40;54.10;;;;;;6329443;28;19930;-69
2023/01/16 10:18:19;;;;;;;;;;;19.40;54.20;;;;;;6348820;28;19911;-69
2023/01/16 10:21:19;;;;;;;;;;;19.40;54.00;;;;;;6315778;28;19904;-69
2023/01/16 10:24:32;;;;;;;;;;;19.40;54.20;;;;;;6307034;28;19904;-69
2023/01/16 10:27:32;;;;;;;;;;;19.40;54.20;;;;;;6322851;28;19916;-70
2023/01/16 10:30:41;;;;;;;;;;;19.40;54.20;;;;;;6336104;28;20017;-69
2023/01/16 10:33:42;;;;;;;;;;;19.40;54.20;;;;;;6316833;28;19911;-69
2023/01/16 10:36:48;;;;;;;;;;;19.40;54.20;;;;;;6319955;28;19911;-69
2023/01/16 10:39:50;;;;;;;;;;;19.40;54.20;;;;;;6338897;28;19904;-69
2023/01/16 10:49:50;;;;;;;;;;;19.40;54.20;;;;;;6330611;28;19903;-69
2023/01/16 10:52:50;;;;;;;;;;;19.40;54.20;;;;;;6347778;28;20388;-69
2023/01/16 10:55:52;;;;;;;;;;;19.40;54.20;;;;;;6335414;28;19911;-69
2023/01/16 10:58:53;;;;;;;;;;;19.40;54.30;;;;;;6320861;28;19911;-69
2023/01/16 11:01:56;;;;;;;;;;;19.40;54.10;;;;;;6322349;28;19908;-68
2023/01/16 11:04:57;;;;;;;;;;;19.40;54.20;;;;;;6322597;28;20447;-69
2023/01/16 11:08:26;;;;;;;;;;;19.40;54.30;;;;;;6322696;28;19930;-69
2023/01/16 11:18:29;;;;;;;;;;;19.40;54.30;;;;;;6322126;28;19912;-68
2023/01/16 11:21:31;;;;;;;;;;;19.40;54.50;;;;;;6311098;28;19904;-69
2023/01/16 11:24:33;;;;;;;;;;;19.30;53.50;;;;;;6321127;28;19912;-70
2023/01/16 11:27:36;;;;;;;;;;;19.30;52.70;;;;;;6320292;28;19916;-70
2023/01/16 11:30:39;;;;;;;;;;;19.30;52.40;;;;;;6319908;28;19908;-70
2023/01/16 11:33:48;;;;;;;;;;;19.30;52.10;;;;;;6320591;28;19961;-70
2023/01/16 11:36:50;;;;;;;;;;;19.40;52.50;;;;;;6302225;28;19943;-70
2023/01/16 11:39:51;;;;;;;;;;;19.40;52.70;;;;;;6292533;28;19904;-71
2023/01/16 11:46:30;;;;;;;;;;;19.40;52.90;;;;;;6320573;28;19904;-71
2023/01/16 11:49:35;;;;;;;;;;;19.40;53.10;;;;;;6325092;28;20329;-70
2023/01/16 11:52:36;;;;;;;;;;;19.40;53.30;;;;;;6324300;28;19908;-70
2023/01/16 11:55:44;;;;;;;;;;;19.40;53.50;;;;;;6319881;28;19904;-70
2023/01/16 11:59:06;;;;;;;;;;;19.40;53.70;;;;;;6319304;28;19946;-70
2023/01/16 12:02:21;;;;;;;;;;;19.40;53.80;;;;;;6310408;28;19908;-70
2023/01/16 12:09:04;;;;;;;;;;;19.40;53.90;;;;;;6295528;28;19987;-70
2023/01/16 12:15:42;;;;;;;;;;;19.40;54.00;;;;;;6319481;28;20268;-70
2023/01/16 12:18:52;;;;;;;;;;;19.40;54.00;;;;;;6300297;28;19908;-70
2023/01/16 12:22:16;;;;;;;;;;;19.40;54.00;;;;;;6319678;28;19908;-70
2023/01/16 12:25:19;;;;;;;;;;;19.40;54.00;;;;;;6317969;28;19919;-70
2023/01/16 12:28:40;;;;;;;;;;;19.40;54.10;;;;;;6288648;28;19908;-70
2023/01/16 12:32:03;;;;;;;;;;;19.40;54.10;;;;;;6323275;28;19919;-70
2023/01/16 12:35:18;;;;;;;;;;;19.40;54.30;;;;;;6301645;28;20966;-70
2023/01/16 12:38:26;;;;;;;;;;;19.40;54.10;;;;;;6308647;28;19911;-69
2023/01/16 12:45:18;;;;;;;;;;;19.40;53.90;;;;;;6281422;28;19912;-70
2023/01/16 12:48:37;;;;;;;;;;;19.50;53.30;;;;;;6294255;28;19904;-69
2023/01/16 12:51:44;;;;;;;;;;;19.50;52.30;;;;;;6318822;28;19981;-69
2023/01/16 12:54:54;;;;;;;;;;;19.50;50.80;;;;;;6322894;28;19991;-70
2023/01/16 12:57:54;;;;;;;;;;;19.50;49.40;;;;;;6293311;28;19912;-71
2023/01/16 13:01:01;;;;;;;;;;;19.50;48.50;;;;;;6301378;28;19926;-71
2023/01/16 13:04:01;;;;;;;;;;;19.60;47.40;;;;;;6319492;28;19904;-71
2023/01/16 13:07:03;;;;;;;;;;;19.70;47.30;;;;;;6301232;28;19915;-71
2023/01/16 13:13:39;;;;;;;;;;;19.70;48.70;;;;;;6310333;28;19911;-70
2023/01/16 13:16:42;;;;;;;;;;;19.70;49.90;;;;;;6322522;28;19942;-70
2023/01/16 13:19:44;;;;;;;;;;;19.70;50.10;;;;;;6306102;28;20364;-71
2023/01/16 13:23:02;;;;;;;;;;;19.70;49.90;;;;;;6323776;28;19904;-71
2023/01/16 13:26:05;;;;;;;;;;;19.70;49.20;;;;;;6299832;28;19925;-71
2023/01/16 13:29:09;;;;;;;;;;;19.70;49.20;;;;;;6322336;28;20440;-71
2023/01/16 13:32:22;;;;;;;;;;;19.80;49.20;;;;;;6324026;28;19908;-71
2023/01/16 13:35:22;;;;;;;;;;;19.80;49.20;;;;;;6305606;28;20225;-70
2023/01/16 13:38:36;;;;;;;;;;;19.80;49.00;;;;;;6322868;28;19911;-70
2023/01/16 13:41:37;;;;;;;;;;;19.90;49.50;;;;;;6297508;28;19997;-71
2023/01/16 13:47:59;;;;;;;;;;;19.80;50.80;;;;;;6323821;28;19990;-71
2023/01/16 13:51:01;;;;;;;;;;;19.80;51.20;;;;;;6323605;28;19910;-71
2023/01/16 13:54:04;;;;;;;;;;;19.80;51.20;;;;;;6324311;28;20065;-71
2023/01/16 13:57:12;;;;;;;;;;;19.80;50.90;;;;;;6348797;28;19908;-71
2023/01/16 14:00:18;;;;;;;;;;;19.90;50.60;;;;;;6329515;28;19904;-68
2023/01/16 14:03:24;;;;;;;;;;;19.90;50.60;;;;;;6323422;28;19970;-68
2023/01/16 14:06:25;;;;;;;;;;;19.90;50.80;;;;;;6345215;28;19962;-68
2023/01/16 14:09:26;;;;;;;;;;;19.90;51.20;;;;;;6326905;28;19904;-67
2023/01/16 14:12:34;;;;;;;;;;;19.90;51.50;;;;;;6348481;28;19907;-68
2023/01/16 14:19:14;;;;;;;;;;;19.80;51.80;;;;;;6325817;28;20512;-69
2023/01/16 14:25:19;;;;;;;;;;;19.80;51.70;;;;;;6347983;28;19957;-68
2023/01/16 14:28:20;;;;;;;;;;;19.80;52.00;;;;;;6348433;28;20426;-68
2023/01/16 14:31:26;;;;;;;;;;;19.80;52.00;;;;;;6333026;28;19947;-68
2023/01/16 14:34:28;;;;;;;;;;;19.80;51.90;;;;;;6308658;28;19981;-69
2023/01/16 14:37:30;;;;;;;;;;;19.80;51.90;;;;;;6329743;28;19911;-68
2023/01/16 14:57:40;;;;;;;;;;;19.80;52.40;;;;;;6344613;28;20368;-68
2023/01/16 15:00:41;;;;;;;;;;;19.80;52.20;;;;;;6335802;28;19953;-68
2023/01/16 15:03:41;;;;;;;;;;;19.80;52.10;;;;;;6319998;28;19998;-67
2023/01/16 15:06:44;;;;;;;;;;;19.80;52.10;;;;;;6342092;28;19914;-68
2023/01/16 15:09:45;;;;;;;;;;;19.80;52.30;;;;;;6306639;28;19904;-68
2023/01/16 15:12:45;;;;;;;;;;;19.80;52.10;;;;;;6302829;28;20315;-68
2023/01/16 15:15:54;;;;;;;;;;;19.80;52.30;;;;;;6321275;28;19904;-68
2023/01/16 15:22:19;;;;;;;;;;;19.80;52.40;;;;;;6321312;28;19904;-68
2023/01/16 15:25:20;;;;;;;;;;;19.80;52.40;;;;;;6320972;28;19993;-68
2023/01/16 15:28:21;;;;;;;;;;;19.80;52.10;;;;;;6320929;28;20254;-68
2023/01/16 15:31:24;;;;;;;;;;;19.80;52.10;;;;;;6315741;28;19950;-68
2023/01/16 15:34:26;;;;;;;;;;;19.80;52.50;;;;;;6320291;28;20418;-69
2023/01/16 15:37:28;;;;;;;;;;;19.90;51.80;;;;;;6319021;28;19911;-68
2023/01/16 15:40:30;;;;;;;;;;;20.00;51.70;;;;;;6301937;28;20320;-68
2023/01/16 15:46:58;;;;;;;;;;;19.90;52.20;;;;;;6336292;28;20361;-68
2023/01/16 15:50:05;;;;;;;;;;;19.90;52.10;;;;;;6338099;28;19903;-68
2023/01/16 15:53:05;;;;;;;;;;;19.90;52.40;;;;;;6320273;28;19908;-68
2023/01/16 15:56:10;;;;;;;;;;;19.80;52.20;;;;;;6322125;28;19911;-69
2023/01/16 15:59:35;;;;;;;;;;;19.80;52.50;;;;;;6345135;28;20577;-68
2023/01/16 16:02:41;;;;;;;;;;;19.80;52.40;;;;;;6326934;28;19904;-69
2023/01/16 16:05:44;;;;;;;;;;;19.80;52.20;;;;;;6320169;28;19908;-68
2023/01/16 16:08:48;;;;;;;;;;;19.80;50.80;;;;;;6320141;28;20368;-68
2023/01/16 16:11:52;;;;;;;;;;;19.80;51.40;;;;;;6320324;28;20352;-68
2023/01/16 16:18:34;;;;;;;;;;;19.80;51.40;;;;;;6292969;28;20007;-68
2023/01/16 16:21:37;;;;;;;;;;;19.80;52.00;;;;;;6277156;28;19912;-68
2023/01/16 16:24:38;;;;;;;;;;;19.80;51.50;;;;;;6293943;28;19912;-68
2023/01/16 16:27:40;;;;;;;;;;;19.90;51.50;;;;;;6325000;28;20309;-68
2023/01/16 16:30:41;;;;;;;;;;;19.90;51.60;;;;;;6327108;28;19961;-68
2023/01/16 16:33:43;;;;;;;;;;;19.90;51.50;;;;;;6323556;28;19916;-68
2023/01/16 16:36:44;;;;;;;;;;;19.90;51.60;;;;;;6318485;28;19904;-68
2023/01/16 16:39:47;;;;;;;;;;;19.90;51.90;;;;;;6344938;28;19910;-69
2023/01/16 16:42:50;;;;;;;;;;;19.90;51.70;;;;;;6314128;28;19904;-68
2023/01/16 16:45:50;;;;;;;;;;;19.90;52.00;;;;;;6325026;28;19929;-68
2023/01/16 16:48:52;;;;;;;;;;;19.90;51.50;;;;;;6326327;28;19908;-68
2023/01/16 16:51:52;;;;;;;;;;;19.90;51.60;;;;;;6327981;28;20003;-68
2023/01/16 16:54:54;;;;;;;;;;;19.90;52.00;;;;;;6329898;28;19910;-68
2023/01/16 16:57:56;;;;;;;;;;;19.80;51.90;;;;;;6323756;28;20368;-68
2023/01/16 17:00:57;;;;;;;;;;;19.90;51.70;;;;;;6323979;28;19904;-68
2023/01/16 17:04:00;;;;;;;;;;;19.90;51.80;;;;;;6341639;28;19936;-68
2023/01/16 17:07:01;;;;;;;;;;;19.90;52.10;;;;;;6347794;28;19908;-68
2023/01/16 17:10:02;;;;;;;;;;;19.90;51.90;;;;;;6331423;28;19969;-68
2023/01/16 17:13:02;;;;;;;;;;;19.90;52.00;;;;;;6321744;28;19916;-68
2023/01/16 17:16:05;;;;;;;;;;;19.90;52.00;;;;;;6322216;28;19911;-69
2023/01/16 17:19:26;;;;;;;;;;;19.90;52.10;;;;;;6321693;28;20418;-68
2023/01/16 17:22:27;;;;;;;;;;;19.90;51.90;;;;;;6316619;28;19923;-68
2023/01/16 17:25:27;;;;;;;;;;;19.90;52.10;;;;;;6317991;28;19912;-68
2023/01/16 17:28:28;;;;;;;;;;;19.90;52.10;;;;;;6294753;28;19961;-68
2023/01/16 17:31:29;;;;;;;;;;;19.90;52.10;;;;;;6278810;28;19905;-68
2023/01/16 17:34:30;;;;;;;;;;;19.80;51.90;;;;;;6330004;28;19903;-68
2023/01/16 17:37:30;;;;;;;;;;;19.80;52.00;;;;;;6346395;28;19908;-68
2023/01/16 17:40:31;;;;;;;;;;;19.80;52.10;;;;;;6315792;28;20400;-68
2023/01/16 17:46:51;;;;;;;;;;;19.90;51.90;;;;;;6346501;28;19904;-68
2023/01/16 17:53:13;;;;;;;;;;;19.90;51.90;;;;;;6326896;28;19958;-68
2023/01/16 17:56:13;;;;;;;;;;;19.90;52.00;;;;;;6320119;28;19904;-68
2023/01/16 17:59:14;;;;;;;;;;;19.90;52.10;;;;;;6332364;28;19939;-68
2023/01/16 18:02:14;;;;;;;;;;;19.90;52.00;;;;;;6319835;28;19904;-68
2023/01/16 18:05:15;;;;;;;;;;;19.90;52.10;;;;;;6296163;28;20609;-68
2023/01/16 18:08:16;;;;;;;;;;;19.90;52.10;;;;;;6301104;28;19904;-68
2023/01/16 18:17:57;;;;;;;;;;;19.90;52.20;;;;;;6320665;28;19904;-69
2023/01/16 18:24:37;;;;;;;;;;;19.90;51.70;;;;;;6243856;28;20804;-66
2023/01/16 18:27:39;;;;;;;;;;;19.90;52.40;;;;;;6242017;28;19913;-67
2023/01/16 18:30:39;;;;;;;;;;;19.80;50.90;;;;;;6332269;28;19998;-67
2023/01/16 18:33:40;;;;;;;;;;;19.80;49.30;;;;;;6344176;28;19961;-68
2023/01/16 18:36:40;;;;;;;;;;;19.80;47.80;;;;;;6319839;28;19914;-68
2023/01/16 19:03:30;;;;;;;;;;;19.80;49.90;;;;;;6320013;28;19912;-68
2023/01/16 19:06:31;;;;;;;;;;;19.80;49.70;;;;;;6313337;28;20033;-68
2023/01/16 19:09:32;;;;;;;;;;;19.80;49.90;;;;;;6318969;28;19939;-68
2023/01/16 19:12:36;;;;;;;;;;;19.80;50.40;;;;;;6319484;28;19908;-68
2023/01/16 19:18:58;;;;;;;;;;;19.80;50.40;;;;;;6281386;28;19911;-68
2023/01/16 19:21:59;;;;;;;;;;;19.80;50.30;;;;;;6301069;28;19908;-68
2023/01/16 19:24:59;;;;;;;;;;;19.90;50.90;;;;;;6301255;28;19904;-67
2023/01/16 19:28:00;;;;;;;;;;;19.90;51.10;;;;;;6319187;28;19911;-67
2023/01/16 19:31:00;;;;;;;;;;;19.90;51.00;;;;;;6318289;28;20048;-67
2023/01/16 19:34:01;;;;;;;;;;;19.90;50.80;;;;;;6318518;28;19939;-67
2023/01/16 19:37:05;;;;;;;;;;;19.90;50.50;;;;;;6311962;28;19935;-67
2023/01/16 19:40:06;;;;;;;;;;;19.90;50.80;;;;;;6319259;28;19904;-67
2023/01/16 19:46:44;;;;;;;;;;;19.90;50.80;;;;;;6319088;28;19904;-67
2023/01/16 19:49:44;;;;;;;;;;;19.90;50.70;;;;;;6318605;28;19904;-67
2023/01/16 19:52:45;;;;;;;;;;;19.90;50.60;;;;;;6318645;28;19918;-67
2023/01/16 19:55:46;;;;;;;;;;;19.90;50.80;;;;;;6300870;28;20022;-67
2023/01/16 19:58:46;;;;;;;;;;;19.90;50.90;;;;;;6319165;28;19904;-67
2023/01/16 20:01:53;;;;;;;;;;;19.90;50.90;;;;;;6318728;28;19961;-67
2023/01/16 20:04:54;;;;;;;;;;;19.80;50.90;;;;;;6300516;28;19904;-67
2023/01/16 20:07:55;;;;;;;;;;;19.80;50.80;;;;;;6319144;28;20429;-67
2023/01/16 20:10:55;;;;;;;;;;;19.80;51.00;;;;;;6314995;28;19930;-67
2023/01/16 20:13:56;;;;;;;;;;;19.80;51.10;;;;;;6318680;28;19908;-67
2023/01/16 20:16:56;;;;;;;;;;;19.80;51.30;;;;;;6318584;28;19904;-67
2023/01/16 20:19:57;;;;;;;;;;;19.80;51.30;;;;;;6325359;28;19957;-67
2023/01/16 20:22:57;;;;;;;;;;;19.80;51.40;;;;;;6344540;28;19925;-67